Time;durP1;ratioP1;P1;durP2;ratioP2;P2;SDS_P1;SDS_P2;PMS_P1;PMS_P2;Temp;Humidity;BMP_temperature;BMP_pressure;BME280_temperature;BME280_humidity;BME280_pressure;Samples;Min_cycle;Max_cycle;Signal;HPM_P1;HPM_P2
2021/04/02 00:00:49;;;;;;;9.45;3.45;;;12.70;73.10;;;;;;4770117;30;20043;-78
2021/04/02 00:03:20;;;;;;;10.05;4.10;;;12.70;72.80;;;;;;4770567;30;20509;-78
2021/04/02 00:05:50;;;;;;;6.55;2.97;;;12.80;72.20;;;;;;4769886;30;20051;-78
2021/04/02 00:08:18;;;;;;;6.28;3.40;;;12.90;72.20;;;;;;4754284;30;20422;-79
2021/04/02 00:10:53;;;;;;;5.40;2.78;;;12.80;73.30;;;;;;4770721;30;20055;-80
2021/04/02 00:13:29;;;;;;;6.45;2.92;;;12.80;72.90;;;;;;4770298;30;20052;-80
2021/04/02 00:15:58;;;;;;;4.15;3.00;;;12.50;74.70;;;;;;4756611;30;20056;-80
2021/04/02 00:18:27;;;;;;;9.75;3.60;;;12.30;75.70;;;;;;4751667;30;20395;-80
2021/04/02 00:20:57;;;;;;;9.15;3.63;;;12.20;77.00;;;;;;4752281;30;20052;-80
2021/04/02 00:23:25;;;;;;;4.80;3.70;;;12.10;77.50;;;;;;4752799;30;20071;-79
2021/04/02 00:25:54;;;;;;;6.47;3.60;;;11.90;78.00;;;;;;4752077;30;20514;-79
2021/04/02 00:28:25;;;;;;;5.25;2.80;;;11.90;78.60;;;;;;4764927;30;20064;-79
2021/04/02 00:30:57;;;;;;;2.83;2.63;;;11.70;79.60;;;;;;4752535;30;20060;-79
2021/04/02 00:33:28;;;;;;;7.82;3.97;;;11.50;81.10;;;;;;4750567;30;20059;-80
2021/04/02 00:35:58;;;;;;;7.38;4.50;;;11.30;81.70;;;;;;4752215;30;20506;-80
2021/04/02 00:38:26;;;;;;;5.45;2.90;;;11.10;83.10;;;;;;4751493;30;20124;-80
2021/04/02 00:40:55;;;;;;;10.68;3.67;;;10.90;84.70;;;;;;4755472;30;20044;-79
2021/04/02 00:43:29;;;;;;;8.57;3.28;;;10.70;86.00;;;;;;4763225;30;20055;-80
2021/04/02 00:45:57;;;;;;;4.85;3.50;;;10.60;86.60;;;;;;4754481;30;20064;-81
2021/04/02 00:48:24;;;;;;;3.92;3.60;;;10.60;87.10;;;;;;4750704;30;20040;-80
2021/04/02 00:50:55;;;;;;;6.03;3.45;;;10.40;88.00;;;;;;4750737;30;20407;-80
2021/04/02 00:53:28;;;;;;;4.15;3.85;;;10.30;88.50;;;;;;4752106;30;20052;-81
2021/04/02 00:55:57;;;;;;;8.47;4.77;;;10.30;88.80;;;;;;4751112;30;20489;-81
2021/04/02 00:58:25;;;;;;;8.32;3.80;;;10.30;89.30;;;;;;4752011;30;20055;-80
2021/04/02 01:00:54;;;;;;;5.07;3.90;;;10.10;89.90;;;;;;4751872;30;20530;-80
2021/04/02 01:03:23;;;;;;;8.50;3.47;;;10.10;90.20;;;;;;4751665;30;20052;-81
2021/04/02 01:05:52;;;;;;;9.50;5.20;;;10.20;89.90;;;;;;4750833;30;20052;-81
2021/04/02 01:08:24;;;;;;;5.80;3.90;;;10.30;89.70;;;;;;4738636;30;20056;-77
2021/04/02 01:10:54;;;;;;;7.15;4.22;;;10.20;90.00;;;;;;4755392;30;20056;-78
2021/04/02 01:13:34;;;;;;;12.60;5.15;;;10.20;90.10;;;;;;4755000;30;20040;-77
2021/04/02 01:16:06;;;;;;;7.03;4.53;;;10.10;90.30;;;;;;4768420;29;20077;-78
2021/04/02 01:19:06;;;;;;;10.45;4.07;;;10.10;90.40;;;;;;4769384;30;20060;-78
2021/04/02 01:21:50;;;;;;;5.32;4.82;;;10.10;90.60;;;;;;4753467;30;20059;-76
2021/04/02 01:24:21;;;;;;;7.18;3.63;;;10.10;90.40;;;;;;4738770;30;20083;-78
2021/04/02 01:27:13;;;;;;;10.90;4.03;;;10.00;90.50;;;;;;4755391;30;20076;-77
2021/04/02 01:29:55;;;;;;;3.92;3.28;;;10.00;90.60;;;;;;4753287;30;20410;-78
2021/04/02 01:32:38;;;;;;;5.75;4.40;;;10.00;90.80;;;;;;4753239;30;20487;-77
2021/04/02 01:35:21;;;;;;;6.95;4.03;;;10.00;90.90;;;;;;4768566;30;20056;-78
2021/04/02 01:37:56;;;;;;;8.65;5.38;;;9.90;90.90;;;;;;4754731;30;20051;-77
2021/04/02 01:40:28;;;;;;;7.85;4.97;;;9.90;91.10;;;;;;4753604;30;20482;-77
2021/04/02 01:43:00;;;;;;;4.30;3.83;;;9.90;91.20;;;;;;4772956;30;20056;-77
2021/04/02 01:45:29;;;;;;;8.93;5.22;;;9.80;91.20;;;;;;4770091;30;20708;-77
2021/04/02 01:48:00;;;;;;;6.60;5.00;;;9.80;91.50;;;;;;4771597;30;20383;-78
2021/04/02 01:50:30;;;;;;;14.57;4.85;;;9.70;91.60;;;;;;4770585;30;20056;-77
2021/04/02 01:53:00;;;;;;;11.73;4.93;;;9.70;91.60;;;;;;4770706;30;20048;-77
2021/04/02 01:55:53;;;;;;;9.15;4.60;;;9.70;91.60;;;;;;4770445;30;20513;-78
2021/04/02 01:58:23;;;;;;;7.25;5.13;;;9.50;91.80;;;;;;4752796;30;20056;-77
2021/04/02 02:00:55;;;;;;;14.27;4.47;;;9.50;91.90;;;;;;4752871;30;20522;-78
2021/04/02 02:03:31;;;;;;;6.68;4.65;;;9.40;92.20;;;;;;4753480;30;20060;-78
2021/04/02 02:06:06;;;;;;;14.60;6.85;;;9.40;92.40;;;;;;4752978;30;20053;-78
2021/04/02 02:08:43;;;;;;;13.80;6.25;;;9.40;92.60;;;;;;4752973;30;20052;-78
2021/04/02 02:11:17;;;;;;;6.90;5.28;;;9.30;92.50;;;;;;4753407;30;20500;-78
2021/04/02 02:14:02;;;;;;;16.20;6.13;;;9.20;92.70;;;;;;4753103;30;20063;-78
2021/04/02 02:16:33;;;;;;;9.38;4.88;;;9.10;92.90;;;;;;4767773;30;20044;-78
2021/04/02 02:19:12;;;;;;;8.23;5.63;;;9.00;93.30;;;;;;4754719;30;20060;-78
2021/04/02 02:21:49;;;;;;;8.27;5.35;;;8.90;93.30;;;;;;4752722;30;20519;-78
2021/04/02 02:24:19;;;;;;;7.35;4.90;;;8.80;93.60;;;;;;4753731;30;20060;-78
2021/04/02 02:26:48;;;;;;;8.13;5.53;;;8.70;93.50;;;;;;4753619;30;20384;-77
2021/04/02 02:29:22;;;;;;;9.07;5.93;;;8.60;93.60;;;;;;4752900;30;20055;-77
2021/04/02 02:31:51;;;;;;;11.73;5.97;;;8.50;94.00;;;;;;4753053;30;20436;-77
2021/04/02 02:34:27;;;;;;;12.23;8.45;;;8.50;94.00;;;;;;4752168;30;20056;-77
2021/04/02 02:36:56;;;;;;;16.80;9.38;;;8.40;94.10;;;;;;4753788;30;20052;-78
2021/04/02 02:39:24;;;;;;;18.92;9.90;;;8.50;94.10;;;;;;4767436;30;20071;-78
2021/04/02 02:41:55;;;;;;;9.15;6.78;;;8.50;93.90;;;;;;4761553;30;20056;-78
2021/04/02 02:44:24;;;;;;;24.67;9.27;;;8.50;93.50;;;;;;4768256;30;20159;-78
2021/04/02 02:46:52;;;;;;;14.85;8.90;;;8.50;93.70;;;;;;4753609;30;20064;-77
2021/04/02 02:49:24;;;;;;;16.52;10.07;;;8.40;93.30;;;;;;4753676;30;20049;-78
2021/04/02 02:51:58;;;;;;;11.98;7.22;;;8.40;93.80;;;;;;4751928;30;20056;-78
2021/04/02 02:54:31;;;;;;;14.18;6.85;;;8.30;93.60;;;;;;4751614;30;20059;-77
2021/04/02 02:57:02;;;;;;;21.60;9.40;;;8.20;94.20;;;;;;4752208;30;20411;-77
2021/04/02 02:59:33;;;;;;;19.00;7.80;;;8.30;94.30;;;;;;4754001;30;20426;-77
2021/04/02 03:02:06;;;;;;;14.20;8.45;;;8.30;94.20;;;;;;4752161;30;20077;-77
2021/04/02 03:04:37;;;;;;;12.85;7.80;;;8.30;93.80;;;;;;4751711;30;20060;-77
2021/04/02 03:07:07;;;;;;;15.68;12.02;;;8.20;93.90;;;;;;4752470;30;20056;-77
2021/04/02 03:09:40;;;;;;;17.35;9.32;;;8.20;94.10;;;;;;4751543;30;20052;-78
2021/04/02 03:12:12;;;;;;;20.75;9.75;;;8.10;94.50;;;;;;4752606;30;20055;-79
2021/04/02 03:14:44;;;;;;;13.38;7.78;;;8.10;94.10;;;;;;4756677;30;20067;-79
2021/04/02 03:17:13;;;;;;;18.02;9.25;;;8.00;94.70;;;;;;4754955;30;20530;-79
2021/04/02 03:19:42;;;;;;;23.38;11.73;;;7.90;94.80;;;;;;4771470;30;20518;-79
2021/04/02 03:22:17;;;;;;;23.77;11.45;;;7.90;94.90;;;;;;4769926;30;20055;-79
2021/04/02 03:24:59;;;;;;;15.80;10.45;;;7.90;95.00;;;;;;4769275;30;20056;-79
2021/04/02 03:27:39;;;;;;;21.73;11.35;;;7.80;95.20;;;;;;4770381;30;20059;-78
2021/04/02 03:30:10;;;;;;;17.33;10.43;;;7.80;95.20;;;;;;4769454;30;20410;-79
2021/04/02 03:32:41;;;;;;;23.52;11.07;;;7.70;95.20;;;;;;4769920;30;20051;-79
2021/04/02 03:35:12;;;;;;;20.90;11.00;;;7.70;95.40;;;;;;4769939;30;20517;-78
2021/04/02 03:37:45;;;;;;;18.25;12.13;;;7.70;95.30;;;;;;4769268;30;20059;-79
2021/04/02 03:40:16;;;;;;;18.30;11.65;;;7.70;95.30;;;;;;4769398;30;20519;-78
2021/04/02 03:42:48;;;;;;;21.55;14.38;;;7.60;95.30;;;;;;4770190;30;20067;-78
2021/04/02 03:45:16;;;;;;;17.75;12.15;;;7.60;95.20;;;;;;4761203;30;20052;-79
2021/04/02 03:47:48;;;;;;;31.83;16.60;;;7.50;95.10;;;;;;4753442;30;20068;-79
2021/04/02 03:50:20;;;;;;;29.27;15.20;;;7.50;95.30;;;;;;4751349;30;20411;-78
2021/04/02 03:52:58;;;;;;;30.02;14.80;;;7.40;94.80;;;;;;4750923;30;20048;-78
2021/04/02 03:55:28;;;;;;;31.02;16.60;;;7.40;94.70;;;;;;4753210;30;20059;-78
2021/04/02 03:57:58;;;;;;;36.25;19.45;;;7.40;94.40;;;;;;4766517;30;20051;-78
2021/04/02 04:00:34;;;;;;;35.67;20.58;;;7.40;94.60;;;;;;4769046;30;20050;-79
2021/04/02 04:03:08;;;;;;;31.38;17.30;;;7.30;94.70;;;;;;4769364;30;20055;-78
2021/04/02 04:05:39;;;;;;;34.72;18.58;;;7.20;94.70;;;;;;4768173;30;20490;-79
2021/04/02 04:08:14;;;;;;;33.53;20.40;;;7.10;94.90;;;;;;4769205;29;20056;-79
2021/04/02 04:10:45;;;;;;;40.40;21.58;;;7.00;95.20;;;;;;4769571;30;20052;-78
2021/04/02 04:13:15;;;;;;;40.85;23.70;;;7.00;95.10;;;;;;4754079;30;20495;-78
2021/04/02 04:15:46;;;;;;;57.53;30.30;;;7.00;94.80;;;;;;4769514;30;20052;-78
2021/04/02 04:18:19;;;;;;;59.92;31.42;;;7.10;94.90;;;;;;4768124;30;20044;-79
2021/04/02 04:20:48;;;;;;;57.53;32.28;;;7.20;94.40;;;;;;4768537;30;20040;-78
2021/04/02 04:23:20;;;;;;;47.55;29.17;;;7.30;94.30;;;;;;4770444;30;20406;-79
2021/04/02 04:25:51;;;;;;;60.60;32.05;;;7.30;94.30;;;;;;4769509;29;20040;-78
2021/04/02 04:28:21;;;;;;;67.22;31.63;;;7.30;94.00;;;;;;4770149;29;20443;-79
2021/04/02 04:30:51;;;;;;;63.88;33.00;;;7.30;94.10;;;;;;4770211;30;20399;-79
2021/04/02 04:33:20;;;;;;;52.70;33.88;;;7.30;94.00;;;;;;4769940;29;20048;-79
2021/04/02 04:35:50;;;;;;;59.95;32.30;;;7.20;93.80;;;;;;4769978;30;20063;-79
2021/04/02 04:38:19;;;;;;;67.78;37.20;;;7.20;93.90;;;;;;4769653;29;20929;-78
2021/04/02 04:40:50;;;;;;;58.60;30.08;;;7.10;94.10;;;;;;4769367;29;20044;-78
2021/04/02 04:43:18;;;;;;;70.25;35.22;;;7.20;93.80;;;;;;4768709;30;20056;-78
2021/04/02 04:45:46;;;;;;;54.42;33.13;;;7.10;94.00;;;;;;4757582;29;20391;-78
2021/04/02 04:49:21;;;;;;;63.50;32.90;;;7.10;94.00;;;;;;4752283;30;20064;-78
2021/04/02 04:51:51;;;;;;;53.30;30.83;;;7.10;93.80;;;;;;4752450;30;20060;-78
2021/04/02 04:54:24;;;;;;;72.95;35.05;;;7.20;93.80;;;;;;4751839;30;20047;-78
2021/04/02 04:56:55;;;;;;;67.50;35.97;;;7.10;93.70;;;;;;4752071;30;20403;-78
2021/04/02 04:59:23;;;;;;;59.88;36.92;;;7.00;93.90;;;;;;4752492;30;20067;-78
2021/04/02 05:01:54;;;;;;;52.75;29.67;;;6.90;94.00;;;;;;4751984;30;20069;-78
2021/04/02 05:04:23;;;;;;;60.65;35.92;;;7.00;94.20;;;;;;4751999;30;20051;-78
2021/04/02 05:07:00;;;;;;;52.97;35.25;;;6.90;94.20;;;;;;4751213;30;20496;-78
2021/04/02 05:09:28;;;;;;;56.92;33.30;;;6.90;94.30;;;;;;4751409;30;20044;-78
2021/04/02 05:12:00;;;;;;;58.42;30.85;;;6.90;94.30;;;;;;4752314;30;20063;-78
2021/04/02 05:14:29;;;;;;;64.35;31.27;;;6.90;94.40;;;;;;4753859;30;20060;-78
2021/04/02 05:16:59;;;;;;;61.75;37.78;;;6.80;94.30;;;;;;4769456;29;20050;-78
2021/04/02 05:19:28;;;;;;;66.90;35.63;;;6.90;94.40;;;;;;4769992;30;20059;-78
2021/04/02 05:21:55;;;;;;;60.20;32.88;;;6.70;94.40;;;;;;4768546;29;20044;-78
2021/04/02 05:24:23;;;;;;;56.92;34.20;;;6.70;94.70;;;;;;4768709;30;20047;-78
2021/04/02 05:26:51;;;;;;;73.00;33.90;;;6.70;94.70;;;;;;4769289;30;20052;-78
2021/04/02 05:29:18;;;;;;;71.70;39.70;;;6.70;94.80;;;;;;4768942;30;20056;-79
2021/04/02 05:31:47;;;;;;;64.47;31.80;;;6.70;94.80;;;;;;4767900;30;20052;-78
2021/04/02 05:34:16;;;;;;;66.10;35.53;;;6.70;95.00;;;;;;4766687;30;20055;-79
2021/04/02 05:36:43;;;;;;;55.22;34.72;;;6.70;94.90;;;;;;4769152;30;20043;-78
2021/04/02 05:39:10;;;;;;;60.38;34.97;;;6.80;95.00;;;;;;4769870;30;20066;-77
2021/04/02 05:42:01;;;;;;;60.47;31.63;;;6.90;95.00;;;;;;4769234;30;20063;-78
2021/04/02 05:44:33;;;;;;;64.32;33.17;;;6.80;94.90;;;;;;4768450;30;20051;-78
2021/04/02 05:47:03;;;;;;;63.60;34.58;;;6.80;94.80;;;;;;4768466;30;20059;-78
2021/04/02 05:49:31;;;;;;;63.60;35.55;;;6.80;94.80;;;;;;4767995;30;20059;-78
2021/04/02 05:52:00;;;;;;;57.22;34.58;;;6.80;94.80;;;;;;4769847;30;20063;-78
2021/04/02 05:54:30;;;;;;;55.53;31.85;;;6.90;94.80;;;;;;4770853;30;20066;-78
2021/04/02 05:56:58;;;;;;;63.60;35.58;;;6.90;94.60;;;;;;4772488;29;20059;-78
2021/04/02 05:59:26;;;;;;;60.38;35.05;;;6.90;94.50;;;;;;4756934;30;20076;-78
2021/04/02 06:01:54;;;;;;;54.60;32.90;;;6.90;94.50;;;;;;4772419;30;20074;-79
2021/04/02 06:04:22;;;;;;;55.75;32.53;;;6.90;94.50;;;;;;4771814;29;20047;-89
2021/04/02 06:06:50;;;;;;;52.45;31.13;;;6.90;94.50;;;;;;4771039;30;20067;-78
2021/04/02 06:09:17;;;;;;;57.33;31.65;;;7.00;94.40;;;;;;4770325;30;20055;-78
2021/04/02 06:11:46;;;;;;;59.47;33.15;;;7.00;94.10;;;;;;4772372;30;20059;-78
2021/04/02 06:14:13;;;;;;;52.85;32.45;;;6.90;94.30;;;;;;4770546;29;20054;-77
2021/04/02 06:16:51;;;;;;;46.90;27.05;;;6.90;93.80;;;;;;4753038;30;20040;-78
2021/04/02 06:19:19;;;;;;;53.60;29.02;;;6.90;94.30;;;;;;4754708;30;20059;-79
2021/04/02 06:21:57;;;;;;;50.45;26.80;;;6.90;94.10;;;;;;4753974;30;20055;-81
2021/04/02 06:24:39;;;;;;;44.15;28.23;;;6.80;94.40;;;;;;4753810;30;20495;-80
2021/04/02 06:27:09;;;;;;;46.60;27.83;;;6.90;94.20;;;;;;4754680;30;20067;-80
2021/04/02 06:29:44;;;;;;;49.08;29.08;;;6.90;93.70;;;;;;4754098;30;20514;-81
2021/04/02 06:32:33;;;;;;;41.67;27.15;;;6.90;93.90;;;;;;4753991;30;20060;-80
2021/04/02 06:35:09;;;;;;;49.35;26.30;;;7.00;93.40;;;;;;4754279;30;20063;-80
2021/04/02 06:37:38;;;;;;;32.50;23.80;;;7.00;93.40;;;;;;4753601;30;20059;-82
2021/04/02 06:40:16;;;;;;;41.55;24.65;;;7.00;93.00;;;;;;4750971;30;20060;-81
2021/04/02 06:42:48;;;;;;;41.03;23.13;;;7.10;92.90;;;;;;4754064;30;20082;-81
2021/04/02 06:45:16;;;;;;;37.88;21.77;;;7.20;92.50;;;;;;4761716;30;20056;-81
2021/04/02 06:47:45;;;;;;;33.78;21.25;;;7.50;92.00;;;;;;4772177;30;20066;-81
2021/04/02 06:50:20;;;;;;;35.65;22.00;;;7.90;90.80;;;;;;4771038;29;20055;-81
2021/04/02 06:52:50;;;;;;;31.92;20.17;;;8.20;87.80;;;;;;4770114;30;20430;-81
2021/04/02 06:55:19;;;;;;;26.75;17.17;;;8.40;87.80;;;;;;4771587;30;20410;-81
2021/04/02 06:57:52;;;;;;;36.05;20.65;;;8.30;87.70;;;;;;4770952;29;20128;-79
2021/04/02 07:00:25;;;;;;;33.83;20.67;;;8.40;87.50;;;;;;4771508;29;20056;-80
2021/04/02 07:02:53;;;;;;;33.53;19.38;;;8.90;85.70;;;;;;4770604;30;20396;-79
2021/04/02 07:05:26;;;;;;;36.53;18.48;;;9.30;82.30;;;;;;4769792;29;20052;-79
2021/04/02 07:07:59;;;;;;;24.67;15.40;;;9.40;78.80;;;;;;4771863;30;20498;-79
2021/04/02 07:10:28;;;;;;;29.98;16.48;;;9.30;78.80;;;;;;4770652;30;20147;-78
2021/04/02 07:13:00;;;;;;;28.63;18.40;;;9.00;82.20;;;;;;4770854;29;20043;-79
2021/04/02 07:15:29;;;;;;;;;;;8.20;86.80;;;;;;4762296;30;20052;-79
2021/04/02 07:17:57;;;;;;;27.10;19.02;;;8.40;86.10;;;;;;4753326;30;19933;-78
2021/04/02 07:20:25;;;;;;;27.58;18.23;;;8.60;84.70;;;;;;4769185;29;20040;-79
2021/04/02 07:22:53;;;;;;;30.17;19.33;;;8.40;85.50;;;;;;4771286;30;20075;-78
2021/04/02 07:25:22;;;;;;;30.13;19.63;;;8.80;83.40;;;;;;4755142;30;20155;-78
2021/04/02 07:27:51;;;;;;;30.63;20.35;;;9.50;80.70;;;;;;4771241;30;20490;-79
2021/04/02 07:30:21;;;;;;;28.13;19.90;;;9.60;78.50;;;;;;4770951;29;20063;-78
2021/04/02 07:32:50;;;;;;;31.65;20.00;;;9.10;84.20;;;;;;4770626;29;20052;-79
2021/04/02 07:35:22;;;;;;;31.63;18.40;;;9.90;79.70;;;;;;4770752;30;20059;-79
2021/04/02 07:37:55;;;;;;;30.40;18.60;;;10.60;78.60;;;;;;4769413;30;20062;-79
2021/04/02 07:40:32;;;;;;;34.63;19.73;;;11.60;70.70;;;;;;4770435;29;20056;-79
2021/04/02 07:43:04;;;;;;;22.55;16.63;;;11.80;70.00;;;;;;4770977;30;20052;-79
2021/04/02 07:45:34;;;;;;;23.35;16.70;;;11.50;70.70;;;;;;4759618;29;20063;-80
2021/04/02 07:48:11;;;;;;;21.35;14.45;;;11.50;69.10;;;;;;4736380;30;20067;-79
2021/04/02 07:50:48;;;;;;;19.80;14.48;;;11.00;70.60;;;;;;4751815;30;20059;-79
2021/04/02 07:53:25;;;;;;;22.15;14.50;;;11.00;70.00;;;;;;4751461;30;20059;-80
2021/04/02 07:56:02;;;;;;;18.63;13.55;;;10.50;69.00;;;;;;4752347;30;20062;-79
2021/04/02 07:58:31;;;;;;;17.60;13.65;;;11.10;70.60;;;;;;4752185;30;20056;-79
2021/04/02 08:01:00;;;;;;;22.00;15.13;;;11.40;67.30;;;;;;4752124;30;20052;-78
2021/04/02 08:03:30;;;;;;;21.25;13.02;;;10.90;68.70;;;;;;4752423;30;20060;-78
2021/04/02 08:06:09;;;;;;;19.35;14.48;;;10.70;70.90;;;;;;4752023;30;20073;-79
2021/04/02 08:08:39;;;;;;;17.20;11.70;;;10.30;74.40;;;;;;4750448;30;20044;-78
2021/04/02 08:11:29;;;;;;;21.05;11.63;;;9.40;75.00;;;;;;4736462;30;20082;-78
2021/04/02 08:14:08;;;;;;;21.92;16.13;;;8.60;78.60;;;;;;4752232;30;20056;-80
2021/04/02 08:16:48;;;;;;;18.70;14.10;;;8.50;77.60;;;;;;4752312;30;20048;-79
2021/04/02 08:19:25;;;;;;;14.57;11.90;;;8.30;79.20;;;;;;4752648;30;20060;-80
2021/04/02 08:21:59;;;;;;;26.08;12.00;;;8.20;79.20;;;;;;4751638;30;20067;-79
2021/04/02 08:24:41;;;;;;;23.02;14.20;;;8.30;82.60;;;;;;4750739;30;20052;-79
2021/04/02 08:27:09;;;;;;;14.80;10.27;;;8.20;78.90;;;;;;4752166;30;20067;-78
2021/04/02 08:29:39;;;;;;;15.18;11.65;;;8.30;79.80;;;;;;4751748;30;20059;-83
2021/04/02 08:32:08;;;;;;;17.60;11.80;;;8.40;78.90;;;;;;4751983;30;20067;-78
2021/04/02 08:34:37;;;;;;;19.20;13.73;;;8.30;79.00;;;;;;4752169;30;20064;-79
2021/04/02 08:37:08;;;;;;;18.40;13.02;;;8.40;80.20;;;;;;4750826;30;20258;-78
2021/04/02 08:39:36;;;;;;;17.20;12.98;;;8.40;78.40;;;;;;4751723;30;20071;-78
2021/04/02 08:42:06;;;;;;;22.52;11.40;;;8.20;78.40;;;;;;4763517;30;20521;-81
2021/04/02 08:44:42;;;;;;;19.10;13.32;;;8.20;78.70;;;;;;4754792;30;20048;-79
2021/04/02 08:47:17;;;;;;;25.73;14.48;;;8.10;81.60;;;;;;4769777;30;20068;-78
2021/04/02 08:49:49;;;;;;;19.23;14.75;;;8.20;82.50;;;;;;4769660;29;20052;-78
2021/04/02 08:52:25;;;;;;;16.77;12.63;;;8.30;79.00;;;;;;4769777;29;20410;-79
2021/04/02 08:55:00;;;;;;;20.38;11.68;;;8.30;83.10;;;;;;4768463;30;20066;-81
2021/04/02 08:57:31;;;;;;;16.98;11.38;;;7.90;81.90;;;;;;4769799;29;20040;-81
2021/04/02 09:00:01;;;;;;;16.48;12.40;;;8.00;82.40;;;;;;4768666;30;20064;-80
2021/04/02 09:02:31;;;;;;;18.20;11.95;;;8.10;81.80;;;;;;4769149;30;20055;-80
2021/04/02 09:05:07;;;;;;;20.17;12.30;;;8.10;82.00;;;;;;4767193;30;20110;-80
2021/04/02 09:07:37;;;;;;;16.38;12.43;;;8.00;83.70;;;;;;4770033;30;20056;-80
2021/04/02 09:10:17;;;;;;;19.83;13.55;;;8.00;81.30;;;;;;4768709;29;20048;-81
2021/04/02 09:12:48;;;;;;;16.45;11.45;;;8.00;82.70;;;;;;4768438;29;20044;-81
2021/04/02 09:15:32;;;;;;;19.08;12.93;;;8.20;82.20;;;;;;4769399;30;20060;-82
2021/04/02 09:18:31;;;;;;;20.45;13.25;;;8.30;81.50;;;;;;4768915;30;20048;-81
2021/04/02 09:21:00;;;;;;;20.38;11.95;;;8.30;80.00;;;;;;4751436;30;20419;-82
2021/04/02 09:23:28;;;;;;;18.65;12.50;;;8.10;80.60;;;;;;4750799;30;20071;-81
2021/04/02 09:25:59;;;;;;;22.00;12.80;;;8.30;81.70;;;;;;4751057;30;20052;-85
2021/04/02 09:28:27;;;;;;;18.60;13.07;;;8.50;79.40;;;;;;4753044;30;20048;-84
2021/04/02 09:31:21;;;;;;;19.35;12.15;;;8.30;80.40;;;;;;4755502;30;20056;-84
2021/04/02 09:33:52;;;;;;;19.63;12.88;;;8.50;81.00;;;;;;4754673;30;20060;-80
2021/04/02 09:36:22;;;;;;;19.00;12.35;;;8.70;81.30;;;;;;4753843;30;20048;-79
2021/04/02 09:38:49;;;;;;;24.80;13.27;;;8.80;78.80;;;;;;4764544;30;20059;-82
2021/04/02 09:41:26;;;;;;;24.45;14.65;;;8.80;77.80;;;;;;4771501;29;20056;-81
2021/04/02 09:43:53;;;;;;;21.42;13.88;;;9.00;78.20;;;;;;4772332;30;20060;-81
2021/04/02 09:46:33;;;;;;;25.63;15.88;;;8.90;80.50;;;;;;4756180;29;20499;-81
2021/04/02 09:49:14;;;;;;;21.00;13.65;;;8.90;78.80;;;;;;4754766;30;20052;-81
2021/04/02 09:51:50;;;;;;;20.50;14.30;;;8.80;80.10;;;;;;4754833;30;20411;-81
2021/04/02 09:54:19;;;;;;;22.63;12.80;;;8.80;79.50;;;;;;4754295;30;20048;-79
2021/04/02 09:56:48;;;;;;;21.88;16.30;;;8.90;80.90;;;;;;4760810;29;20059;-79
2021/04/02 09:59:15;;;;;;;20.25;13.43;;;9.00;80.10;;;;;;4772467;30;20529;-81
2021/04/02 10:01:44;;;;;;;18.80;15.32;;;9.40;79.00;;;;;;4771165;29;20066;-80
2021/04/02 10:04:14;;;;;;;21.00;14.02;;;9.50;77.60;;;;;;4769964;30;20063;-79
2021/04/02 10:06:42;;;;;;;19.48;13.77;;;9.80;77.60;;;;;;4772060;30;20502;-80
2021/04/02 10:09:10;;;;;;;25.45;16.63;;;9.60;79.40;;;;;;4755952;30;20051;-81
2021/04/02 10:11:45;;;;;;;18.80;14.50;;;9.20;79.10;;;;;;4755425;30;20063;-83
2021/04/02 10:14:15;;;;;;;22.67;17.13;;;8.80;79.80;;;;;;4752592;30;20499;-84
2021/04/02 10:16:46;;;;;;;31.55;21.90;;;8.70;83.80;;;;;;4771260;30;20051;-85
2021/04/02 10:19:15;;;;;;;24.98;17.92;;;8.70;82.80;;;;;;4756317;30;20055;-77
2021/04/02 10:21:43;;;;;;;26.73;17.08;;;8.90;80.40;;;;;;4769871;30;20402;-83
2021/04/02 10:24:11;;;;;;;20.80;15.55;;;9.20;79.80;;;;;;4771646;30;20059;-82
2021/04/02 10:26:39;;;;;;;30.23;16.08;;;9.40;79.50;;;;;;4771641;30;20060;-79
2021/04/02 10:29:07;;;;;;;30.00;19.35;;;9.70;78.80;;;;;;4770651;29;20055;-79
2021/04/02 10:31:35;;;;;;;20.40;14.48;;;9.80;77.20;;;;;;4770276;30;20107;-78
2021/04/02 10:34:03;;;;;;;21.48;16.13;;;9.80;76.80;;;;;;4766941;30;20048;-80
2021/04/02 10:36:31;;;;;;;23.95;16.05;;;9.90;77.60;;;;;;4769416;30;20055;-79
2021/04/02 10:39:00;;;;;;;27.23;18.58;;;9.70;81.00;;;;;;4769764;30;20063;-79
2021/04/02 10:41:28;;;;;;;26.65;17.73;;;10.10;79.70;;;;;;4769602;29;20570;-76
2021/04/02 10:43:55;;;;;;;24.10;19.20;;;10.20;76.80;;;;;;4754965;30;20152;-78
2021/04/02 10:46:23;;;;;;;31.80;20.77;;;10.40;76.60;;;;;;4768706;30;20083;-79
2021/04/02 10:48:50;;;;;;;30.35;19.38;;;10.60;76.20;;;;;;4739633;30;20514;-78
2021/04/02 10:51:18;;;;;;;32.30;23.67;;;10.30;79.50;;;;;;4740238;30;20418;-79
2021/04/02 10:53:45;;;;;;;29.10;19.55;;;10.10;77.60;;;;;;4770858;29;20052;-78
2021/04/02 10:56:13;;;;;;;31.58;19.65;;;10.00;78.20;;;;;;4769223;29;20494;-77
2021/04/02 10:58:41;;;;;;;35.38;20.65;;;10.40;75.80;;;;;;4770413;30;20067;-78
2021/04/02 11:01:08;;;;;;;31.10;17.80;;;10.70;77.00;;;;;;4769486;29;20074;-77
2021/04/02 11:03:36;;;;;;;33.50;20.83;;;10.70;77.20;;;;;;4770426;30;20067;-78
2021/04/02 11:06:05;;;;;;;32.10;18.77;;;10.50;78.40;;;;;;4769463;29;20055;-78
2021/04/02 11:08:32;;;;;;;31.98;20.83;;;10.50;74.80;;;;;;4770106;30;20128;-79
2021/04/02 11:11:00;;;;;;;28.77;18.73;;;10.60;76.70;;;;;;4768167;30;20068;-78
2021/04/02 11:13:27;;;;;;;32.20;22.23;;;10.60;75.10;;;;;;4770213;30;20426;-80
2021/04/02 11:15:55;;;;;;;34.28;18.60;;;10.60;77.80;;;;;;4769640;30;20059;-78
2021/04/02 11:18:22;;;;;;;30.67;19.13;;;10.80;73.70;;;;;;4767577;29;20059;-77
2021/04/02 11:20:50;;;;;;;26.88;15.88;;;10.70;74.00;;;;;;4751605;30;20052;-77
2021/04/02 11:23:17;;;;;;;26.60;18.48;;;10.70;76.40;;;;;;4752799;30;20071;-83
2021/04/02 11:25:46;;;;;;;33.30;21.10;;;11.00;79.20;;;;;;4736121;30;20087;-84
2021/04/02 11:28:15;;;;;;;35.78;19.70;;;11.00;73.20;;;;;;4751559;30;20063;-84
2021/04/02 11:30:45;;;;;;;28.48;19.05;;;10.90;74.40;;;;;;4723343;30;20175;-86
2021/04/02 11:33:13;;;;;;;31.63;21.23;;;11.10;76.40;;;;;;4753157;30;20048;-87
2021/04/02 11:35:43;;;;;;;34.47;24.38;;;11.10;73.30;;;;;;4768764;30;20047;-87
2021/04/02 11:38:13;;;;;;;26.58;18.33;;;10.80;76.30;;;;;;4722876;30;20052;-88
2021/04/02 11:41:11;;;;;;;22.33;15.20;;;11.10;75.20;;;;;;4744849;30;20055;-88
2021/04/02 11:44:16;;;;;;;23.35;15.55;;;11.10;69.70;;;;;;4771755;30;20066;-87
2021/04/02 11:47:03;;;;;;;31.88;17.52;;;11.10;68.40;;;;;;4754456;30;20056;-89
2021/04/02 11:49:52;;;;;;;23.63;15.57;;;11.00;70.90;;;;;;4755670;30;20044;-87
2021/04/02 11:52:20;;;;;;;23.60;15.85;;;10.90;73.70;;;;;;4768952;30;20513;-87
2021/04/02 11:54:50;;;;;;;26.90;16.33;;;11.10;73.60;;;;;;4754347;30;20068;-87
2021/04/02 11:57:45;;;;;;;;;;;;;;;;;;;;;
2021/04/02 12:01:28;;;;;;;33.40;15.55;;;11.30;71.70;;;;;;4757792;30;20509;-88
2021/04/02 12:04:21;;;;;;;26.33;16.58;;;11.60;72.40;;;;;;4756860;29;20055;-84
2021/04/02 12:07:32;;;;;;;18.10;14.25;;;11.30;69.90;;;;;;4755102;30;20052;-84
2021/04/02 12:11:00;;;;;;;;;;;;;;;;;;;;;
2021/04/02 12:14:25;;;;;;;32.28;17.83;;;11.30;69.00;;;;;;4743204;30;20055;-86
2021/04/02 12:17:26;;;;;;;23.73;15.38;;;11.50;70.40;;;;;;4729335;30;20058;-89
2021/04/02 12:20:49;;;;;;;21.35;14.55;;;11.70;69.90;;;;;;4742968;30;20070;-88
2021/04/02 12:23:19;;;;;;;21.05;15.15;;;11.60;68.90;;;;;;4755596;30;20059;-88
2021/04/02 12:25:49;;;;;;;22.85;15.82;;;11.70;69.90;;;;;;4737529;30;20041;-85
2021/04/02 12:28:17;;;;;;;23.45;17.92;;;11.30;70.10;;;;;;4762987;29;20067;-83
2021/04/02 12:30:47;;;;;;;24.75;16.48;;;11.20;71.40;;;;;;4769311;30;20063;-83
2021/04/02 12:33:15;;;;;;;19.38;14.02;;;11.40;72.90;;;;;;4768748;30;20055;-84
2021/04/02 12:35:43;;;;;;;28.30;19.77;;;11.70;70.50;;;;;;4769351;30;20063;-82
2021/04/02 12:38:12;;;;;;;23.90;17.73;;;11.40;70.60;;;;;;4770070;30;20074;-79
2021/04/02 12:40:40;;;;;;;22.40;14.02;;;11.20;71.80;;;;;;4766421;30;20059;-78
2021/04/02 12:43:07;;;;;;;24.88;21.52;;;11.30;71.60;;;;;;4755027;30;20805;-87
2021/04/02 12:45:37;;;;;;;28.48;22.55;;;11.20;71.30;;;;;;4728777;30;20063;-86
2021/04/02 12:48:05;;;;;;;20.30;15.40;;;11.00;72.70;;;;;;4723069;29;20069;-89
2021/04/02 12:50:38;;;;;;;24.77;16.45;;;10.90;76.00;;;;;;4754326;30;20051;-87
2021/04/02 12:57:06;;;;;;;23.25;16.55;;;11.20;72.60;;;;;;4713027;30;20053;-85
2021/04/02 12:59:39;;;;;;;20.13;16.58;;;11.50;71.20;;;;;;4708718;30;20082;-86
2021/04/02 13:02:10;;;;;;;24.77;15.57;;;11.40;69.70;;;;;;4768767;29;20059;-85
2021/04/02 13:04:41;;;;;;;22.42;15.73;;;11.40;71.10;;;;;;4767876;30;20043;-86
2021/04/02 13:07:09;;;;;;;24.17;16.52;;;11.50;70.50;;;;;;4767184;30;20059;-85
2021/04/02 13:09:42;;;;;;;21.10;16.30;;;11.50;75.10;;;;;;4714968;30;20055;-85
2021/04/02 13:12:10;;;;;;;31.85;15.55;;;11.40;70.10;;;;;;4750592;30;20064;-84
2021/04/02 13:14:37;;;;;;;37.35;17.50;;;11.70;72.10;;;;;;4754546;30;20144;-83